sensor_id;sensor_type;location;lat;lon;timestamp;P1;durP1;ratioP1;P2;durP2;ratioP2
59571;SDS011;59406;45.602;11.904;2022-10-15T00:02:18;37.45;;;20.88;;
59571;SDS011;59406;45.602;11.904;2022-10-15T00:04:44;47.97;;;24.70;;
59571;SDS011;59406;45.602;11.904;2022-10-15T00:07:10;47.30;;;24.75;;
59571;SDS011;59406;45.602;11.904;2022-10-15T00:09:36;46.42;;;24.75;;
59571;SDS011;59406;45.602;11.904;2022-10-15T00:12:02;42.57;;;22.77;;
59571;SDS011;59406;45.602;11.904;2022-10-15T00:14:28;45.58;;;23.08;;
59571;SDS011;59406;45.602;11.904;2022-10-15T00:16:54;36.15;;;18.40;;
59571;SDS011;59406;45.602;11.904;2022-10-15T00:19:20;40.75;;;20.98;;
59571;SDS011;59406;45.602;11.904;2022-10-15T00:21:46;39.40;;;19.93;;
59571;SDS011;59406;45.602;11.904;2022-10-15T00:24:12;39.42;;;20.52;;
59571;SDS011;59406;45.602;11.904;2022-10-15T00:26:38;43.72;;;22.20;;
59571;SDS011;59406;45.602;11.904;2022-10-15T00:29:03;40.85;;;21.90;;
59571;SDS011;59406;45.602;11.904;2022-10-15T00:31:30;41.13;;;22.07;;
59571;SDS011;59406;45.602;11.904;2022-10-15T00:33:57;39.65;;;21.70;;
59571;SDS011;59406;45.602;11.904;2022-10-15T00:36:26;34.20;;;17.65;;
59571;SDS011;59406;45.602;11.904;2022-10-15T00:38:54;31.05;;;15.77;;
59571;SDS011;59406;45.602;11.904;2022-10-15T00:41:25;29.63;;;15.13;;
59571;SDS011;59406;45.602;11.904;2022-10-15T00:46:54;34.13;;;17.52;;
59571;SDS011;59406;45.602;11.904;2022-10-15T00:52:16;37.00;;;18.30;;
59571;SDS011;59406;45.602;11.904;2022-10-15T00:55:31;35.77;;;18.63;;
59571;SDS011;59406;45.602;11.904;2022-10-15T00:57:46;31.83;;;16.17;;
59571;SDS011;59406;45.602;11.904;2022-10-15T01:00:15;31.17;;;14.88;;
59571;SDS011;59406;45.602;11.904;2022-10-15T01:02:43;34.83;;;17.80;;
59571;SDS011;59406;45.602;11.904;2022-10-15T01:05:10;38.25;;;18.67;;
59571;SDS011;59406;45.602;11.904;2022-10-15T01:07:39;37.03;;;20.27;;
59571;SDS011;59406;45.602;11.904;2022-10-15T01:10:05;45.00;;;24.00;;
59571;SDS011;59406;45.602;11.904;2022-10-15T01:12:46;44.63;;;23.65;;
59571;SDS011;59406;45.602;11.904;2022-10-15T01:15:18;38.08;;;19.65;;
59571;SDS011;59406;45.602;11.904;2022-10-15T01:17:52;35.75;;;20.27;;
59571;SDS011;59406;45.602;11.904;2022-10-15T01:20:51;41.07;;;20.53;;
59571;SDS011;59406;45.602;11.904;2022-10-15T01:40:23;35.28;;;17.92;;
59571;SDS011;59406;45.602;11.904;2022-10-15T01:42:56;39.15;;;19.50;;
59571;SDS011;59406;45.602;11.904;2022-10-15T01:45:37;37.77;;;20.00;;
59571;SDS011;59406;45.602;11.904;2022-10-15T01:48:07;39.25;;;21.52;;
59571;SDS011;59406;45.602;11.904;2022-10-15T01:50:36;40.13;;;21.52;;
59571;SDS011;59406;45.602;11.904;2022-10-15T01:53:07;46.63;;;23.40;;
59571;SDS011;59406;45.602;11.904;2022-10-15T01:55:35;40.28;;;20.90;;
59571;SDS011;59406;45.602;11.904;2022-10-15T01:58:06;41.77;;;21.93;;
59571;SDS011;59406;45.602;11.904;2022-10-15T02:00:34;31.35;;;18.15;;
59571;SDS011;59406;45.602;11.904;2022-10-15T02:03:00;37.00;;;20.10;;
59571;SDS011;59406;45.602;11.904;2022-10-15T02:05:36;41.28;;;21.73;;
59571;SDS011;59406;45.602;11.904;2022-10-15T02:08:33;38.50;;;20.83;;
59571;SDS011;59406;45.602;11.904;2022-10-15T02:11:22;42.20;;;21.13;;
59571;SDS011;59406;45.602;11.904;2022-10-15T02:16:55;40.00;;;21.73;;
59571;SDS011;59406;45.602;11.904;2022-10-15T02:19:38;42.33;;;21.60;;
59571;SDS011;59406;45.602;11.904;2022-10-15T02:22:20;38.83;;;21.00;;
59571;SDS011;59406;45.602;11.904;2022-10-15T02:24:57;42.50;;;21.13;;
59571;SDS011;59406;45.602;11.904;2022-10-15T02:27:30;39.00;;;19.95;;
59571;SDS011;59406;45.602;11.904;2022-10-15T02:29:58;38.45;;;19.92;;
59571;SDS011;59406;45.602;11.904;2022-10-15T02:32:31;39.75;;;21.70;;
59571;SDS011;59406;45.602;11.904;2022-10-15T02:34:58;38.28;;;21.20;;
59571;SDS011;59406;45.602;11.904;2022-10-15T02:37:26;36.80;;;21.10;;
59571;SDS011;59406;45.602;11.904;2022-10-15T02:39:54;34.72;;;19.35;;
59571;SDS011;59406;45.602;11.904;2022-10-15T02:42:21;44.33;;;21.58;;
59571;SDS011;59406;45.602;11.904;2022-10-15T02:44:47;32.75;;;17.45;;
59571;SDS011;59406;45.602;11.904;2022-10-15T02:47:13;33.75;;;17.95;;
59571;SDS011;59406;45.602;11.904;2022-10-15T02:49:39;38.40;;;20.30;;
59571;SDS011;59406;45.602;11.904;2022-10-15T02:52:05;32.72;;;17.60;;
59571;SDS011;59406;45.602;11.904;2022-10-15T02:54:31;29.77;;;17.27;;
59571;SDS011;59406;45.602;11.904;2022-10-15T02:56:57;36.47;;;18.88;;
59571;SDS011;59406;45.602;11.904;2022-10-15T02:59:23;31.47;;;17.93;;
59571;SDS011;59406;45.602;11.904;2022-10-15T03:01:50;40.08;;;20.33;;
59571;SDS011;59406;45.602;11.904;2022-10-15T03:04:15;37.78;;;21.48;;
59571;SDS011;59406;45.602;11.904;2022-10-15T03:06:41;39.30;;;21.67;;
59571;SDS011;59406;45.602;11.904;2022-10-15T03:09:08;36.08;;;19.63;;
59571;SDS011;59406;45.602;11.904;2022-10-15T03:11:34;35.80;;;19.13;;
59571;SDS011;59406;45.602;11.904;2022-10-15T03:13:59;33.88;;;17.35;;
59571;SDS011;59406;45.602;11.904;2022-10-15T03:16:26;33.97;;;17.87;;
59571;SDS011;59406;45.602;11.904;2022-10-15T03:18:51;31.23;;;16.95;;
59571;SDS011;59406;45.602;11.904;2022-10-15T03:21:18;24.42;;;13.30;;
59571;SDS011;59406;45.602;11.904;2022-10-15T03:23:44;26.70;;;14.77;;
59571;SDS011;59406;45.602;11.904;2022-10-15T03:26:10;24.88;;;13.40;;
59571;SDS011;59406;45.602;11.904;2022-10-15T03:28:36;29.90;;;14.07;;
59571;SDS011;59406;45.602;11.904;2022-10-15T03:31:02;33.58;;;18.50;;
59571;SDS011;59406;45.602;11.904;2022-10-15T03:33:28;31.77;;;16.58;;
59571;SDS011;59406;45.602;11.904;2022-10-15T03:35:54;33.27;;;17.97;;
59571;SDS011;59406;45.602;11.904;2022-10-15T03:38:21;26.45;;;14.43;;
59571;SDS011;59406;45.602;11.904;2022-10-15T03:40:47;29.95;;;16.20;;
59571;SDS011;59406;45.602;11.904;2022-10-15T03:43:13;19.38;;;11.05;;
59571;SDS011;59406;45.602;11.904;2022-10-15T03:45:39;19.03;;;10.17;;
59571;SDS011;59406;45.602;11.904;2022-10-15T03:48:05;23.02;;;11.65;;
59571;SDS011;59406;45.602;11.904;2022-10-15T03:50:31;32.50;;;17.50;;
59571;SDS011;59406;45.602;11.904;2022-10-15T03:52:57;25.95;;;13.32;;
59571;SDS011;59406;45.602;11.904;2022-10-15T03:55:23;22.60;;;12.23;;
59571;SDS011;59406;45.602;11.904;2022-10-15T03:57:49;21.80;;;13.15;;
59571;SDS011;59406;45.602;11.904;2022-10-15T04:00:15;24.50;;;13.43;;
59571;SDS011;59406;45.602;11.904;2022-10-15T04:02:41;27.00;;;13.33;;
59571;SDS011;59406;45.602;11.904;2022-10-15T04:05:06;21.83;;;11.20;;
59571;SDS011;59406;45.602;11.904;2022-10-15T04:07:32;23.40;;;12.82;;
59571;SDS011;59406;45.602;11.904;2022-10-15T04:09:58;24.20;;;12.07;;
59571;SDS011;59406;45.602;11.904;2022-10-15T04:12:24;28.08;;;15.73;;
59571;SDS011;59406;45.602;11.904;2022-10-15T04:14:50;35.90;;;18.97;;
59571;SDS011;59406;45.602;11.904;2022-10-15T04:17:15;26.63;;;13.98;;
59571;SDS011;59406;45.602;11.904;2022-10-15T04:19:41;27.75;;;14.68;;
59571;SDS011;59406;45.602;11.904;2022-10-15T04:22:07;20.53;;;10.73;;
59571;SDS011;59406;45.602;11.904;2022-10-15T04:24:33;20.90;;;11.35;;
59571;SDS011;59406;45.602;11.904;2022-10-15T04:26:59;18.43;;;10.50;;
59571;SDS011;59406;45.602;11.904;2022-10-15T04:29:24;20.35;;;10.73;;
59571;SDS011;59406;45.602;11.904;2022-10-15T04:31:50;17.90;;;9.70;;
59571;SDS011;59406;45.602;11.904;2022-10-15T04:34:16;20.90;;;10.53;;
59571;SDS011;59406;45.602;11.904;2022-10-15T04:36:42;22.20;;;11.63;;
59571;SDS011;59406;45.602;11.904;2022-10-15T04:39:08;20.95;;;10.25;;
59571;SDS011;59406;45.602;11.904;2022-10-15T04:41:34;25.07;;;14.43;;
59571;SDS011;59406;45.602;11.904;2022-10-15T04:43:59;23.85;;;13.27;;
59571;SDS011;59406;45.602;11.904;2022-10-15T04:46:25;20.25;;;11.05;;
59571;SDS011;59406;45.602;11.904;2022-10-15T04:48:51;20.37;;;10.53;;
59571;SDS011;59406;45.602;11.904;2022-10-15T04:51:22;20.08;;;10.75;;
59571;SDS011;59406;45.602;11.904;2022-10-15T04:53:49;19.35;;;11.15;;
59571;SDS011;59406;45.602;11.904;2022-10-15T04:56:16;20.23;;;9.87;;
59571;SDS011;59406;45.602;11.904;2022-10-15T04:58:44;18.88;;;8.93;;
59571;SDS011;59406;45.602;11.904;2022-10-15T05:01:12;19.67;;;10.20;;
59571;SDS011;59406;45.602;11.904;2022-10-15T05:03:41;18.35;;;9.77;;
59571;SDS011;59406;45.602;11.904;2022-10-15T05:06:09;19.42;;;9.63;;
59571;SDS011;59406;45.602;11.904;2022-10-15T05:08:38;19.07;;;9.83;;
59571;SDS011;59406;45.602;11.904;2022-10-15T05:11:12;17.77;;;9.18;;
59571;SDS011;59406;45.602;11.904;2022-10-15T05:13:40;20.80;;;11.70;;
59571;SDS011;59406;45.602;11.904;2022-10-15T05:18:43;25.70;;;12.25;;
59571;SDS011;59406;45.602;11.904;2022-10-15T05:21:10;23.03;;;12.43;;
59571;SDS011;59406;45.602;11.904;2022-10-15T05:23:37;31.20;;;17.13;;
59571;SDS011;59406;45.602;11.904;2022-10-15T05:26:03;26.15;;;13.20;;
59571;SDS011;59406;45.602;11.904;2022-10-15T05:28:31;22.70;;;12.07;;
59571;SDS011;59406;45.602;11.904;2022-10-15T05:31:11;23.02;;;12.18;;
59571;SDS011;59406;45.602;11.904;2022-10-15T05:33:42;16.03;;;8.50;;
59571;SDS011;59406;45.602;11.904;2022-10-15T05:38:33;26.85;;;13.43;;
59571;SDS011;59406;45.602;11.904;2022-10-15T05:40:59;22.20;;;10.53;;
59571;SDS011;59406;45.602;11.904;2022-10-15T05:43:25;21.70;;;11.40;;
59571;SDS011;59406;45.602;11.904;2022-10-15T05:45:54;23.90;;;11.38;;
59571;SDS011;59406;45.602;11.904;2022-10-15T05:48:21;26.40;;;14.50;;
59571;SDS011;59406;45.602;11.904;2022-10-15T05:50:47;17.93;;;9.80;;
59571;SDS011;59406;45.602;11.904;2022-10-15T05:53:13;23.55;;;11.57;;
59571;SDS011;59406;45.602;11.904;2022-10-15T05:55:39;19.25;;;10.10;;
59571;SDS011;59406;45.602;11.904;2022-10-15T05:58:05;22.40;;;12.00;;
59571;SDS011;59406;45.602;11.904;2022-10-15T06:00:31;28.97;;;14.73;;
59571;SDS011;59406;45.602;11.904;2022-10-15T06:02:57;32.83;;;16.50;;
59571;SDS011;59406;45.602;11.904;2022-10-15T06:05:24;32.70;;;17.27;;
59571;SDS011;59406;45.602;11.904;2022-10-15T06:07:49;34.10;;;16.80;;
59571;SDS011;59406;45.602;11.904;2022-10-15T06:10:16;33.70;;;18.73;;
59571;SDS011;59406;45.602;11.904;2022-10-15T06:12:47;28.90;;;15.80;;
59571;SDS011;59406;45.602;11.904;2022-10-15T06:15:15;27.23;;;15.35;;
59571;SDS011;59406;45.602;11.904;2022-10-15T06:17:42;29.83;;;15.38;;
59571;SDS011;59406;45.602;11.904;2022-10-15T06:20:08;32.60;;;16.83;;
59571;SDS011;59406;45.602;11.904;2022-10-15T06:22:35;24.20;;;12.53;;
59571;SDS011;59406;45.602;11.904;2022-10-15T06:25:00;24.60;;;13.48;;
59571;SDS011;59406;45.602;11.904;2022-10-15T06:27:27;28.20;;;15.18;;
59571;SDS011;59406;45.602;11.904;2022-10-15T06:29:52;26.05;;;14.18;;
59571;SDS011;59406;45.602;11.904;2022-10-15T06:32:18;27.30;;;14.83;;
59571;SDS011;59406;45.602;11.904;2022-10-15T06:34:45;28.80;;;15.55;;
59571;SDS011;59406;45.602;11.904;2022-10-15T06:37:11;29.65;;;16.15;;
59571;SDS011;59406;45.602;11.904;2022-10-15T06:39:36;27.33;;;16.15;;
59571;SDS011;59406;45.602;11.904;2022-10-15T06:42:04;31.50;;;16.50;;
59571;SDS011;59406;45.602;11.904;2022-10-15T06:44:30;29.00;;;15.70;;
59571;SDS011;59406;45.602;11.904;2022-10-15T06:46:55;25.52;;;13.85;;
59571;SDS011;59406;45.602;11.904;2022-10-15T06:49:23;27.25;;;14.43;;
59571;SDS011;59406;45.602;11.904;2022-10-15T06:51:49;25.40;;;14.47;;
59571;SDS011;59406;45.602;11.904;2022-10-15T06:54:15;25.80;;;14.43;;
59571;SDS011;59406;45.602;11.904;2022-10-15T06:56:41;25.42;;;13.85;;
59571;SDS011;59406;45.602;11.904;2022-10-15T06:59:07;26.03;;;15.90;;
59571;SDS011;59406;45.602;11.904;2022-10-15T07:01:33;27.25;;;14.70;;
59571;SDS011;59406;45.602;11.904;2022-10-15T07:03:59;20.98;;;13.20;;
59571;SDS011;59406;45.602;11.904;2022-10-15T07:06:24;21.35;;;11.80;;
59571;SDS011;59406;45.602;11.904;2022-10-15T07:08:51;17.67;;;10.23;;
59571;SDS011;59406;45.602;11.904;2022-10-15T07:11:16;16.83;;;10.45;;
59571;SDS011;59406;45.602;11.904;2022-10-15T07:13:42;22.80;;;13.65;;
59571;SDS011;59406;45.602;11.904;2022-10-15T07:16:09;18.58;;;10.70;;
59571;SDS011;59406;45.602;11.904;2022-10-15T07:18:36;25.15;;;13.13;;
59571;SDS011;59406;45.602;11.904;2022-10-15T07:21:03;29.50;;;15.63;;
59571;SDS011;59406;45.602;11.904;2022-10-15T07:23:31;21.98;;;12.32;;
59571;SDS011;59406;45.602;11.904;2022-10-15T07:25:58;30.48;;;17.33;;
59571;SDS011;59406;45.602;11.904;2022-10-15T07:28:25;22.00;;;12.85;;
59571;SDS011;59406;45.602;11.904;2022-10-15T07:30:51;20.85;;;12.73;;
59571;SDS011;59406;45.602;11.904;2022-10-15T07:33:18;25.93;;;16.23;;
59571;SDS011;59406;45.602;11.904;2022-10-15T07:35:44;29.00;;;16.88;;
59571;SDS011;59406;45.602;11.904;2022-10-15T07:38:10;27.50;;;15.82;;
59571;SDS011;59406;45.602;11.904;2022-10-15T07:40:36;30.20;;;17.85;;
59571;SDS011;59406;45.602;11.904;2022-10-15T07:43:02;23.63;;;14.73;;
59571;SDS011;59406;45.602;11.904;2022-10-15T07:45:27;22.35;;;13.43;;
59571;SDS011;59406;45.602;11.904;2022-10-15T07:47:53;20.85;;;12.55;;
59571;SDS011;59406;45.602;11.904;2022-10-15T07:50:19;25.20;;;15.97;;
59571;SDS011;59406;45.602;11.904;2022-10-15T07:52:46;27.70;;;17.08;;
59571;SDS011;59406;45.602;11.904;2022-10-15T07:55:12;22.02;;;13.32;;
59571;SDS011;59406;45.602;11.904;2022-10-15T07:57:38;28.60;;;17.50;;
59571;SDS011;59406;45.602;11.904;2022-10-15T08:00:04;22.53;;;13.97;;
59571;SDS011;59406;45.602;11.904;2022-10-15T08:02:31;28.80;;;19.02;;
59571;SDS011;59406;45.602;11.904;2022-10-15T08:04:57;21.23;;;13.48;;
59571;SDS011;59406;45.602;11.904;2022-10-15T08:07:23;22.25;;;13.98;;
59571;SDS011;59406;45.602;11.904;2022-10-15T08:09:49;22.77;;;14.67;;
59571;SDS011;59406;45.602;11.904;2022-10-15T08:12:15;18.55;;;12.50;;
59571;SDS011;59406;45.602;11.904;2022-10-15T08:14:41;26.25;;;16.55;;
59571;SDS011;59406;45.602;11.904;2022-10-15T08:17:07;23.33;;;14.13;;
59571;SDS011;59406;45.602;11.904;2022-10-15T08:19:33;26.25;;;17.08;;
59571;SDS011;59406;45.602;11.904;2022-10-15T08:21:59;24.85;;;14.63;;
59571;SDS011;59406;45.602;11.904;2022-10-15T08:24:25;28.80;;;18.60;;
59571;SDS011;59406;45.602;11.904;2022-10-15T08:26:51;26.02;;;16.55;;
59571;SDS011;59406;45.602;11.904;2022-10-15T08:29:17;25.75;;;16.85;;
59571;SDS011;59406;45.602;11.904;2022-10-15T08:31:42;25.50;;;17.27;;
59571;SDS011;59406;45.602;11.904;2022-10-15T08:34:08;20.85;;;13.50;;
59571;SDS011;59406;45.602;11.904;2022-10-15T08:36:34;29.33;;;20.03;;
59571;SDS011;59406;45.602;11.904;2022-10-15T08:39:00;28.80;;;17.92;;
59571;SDS011;59406;45.602;11.904;2022-10-15T08:44:01;25.95;;;16.38;;
59571;SDS011;59406;45.602;11.904;2022-10-15T08:46:38;29.90;;;19.97;;
59571;SDS011;59406;45.602;11.904;2022-10-15T08:49:32;30.38;;;19.55;;
59571;SDS011;59406;45.602;11.904;2022-10-15T08:52:02;26.98;;;17.40;;
59571;SDS011;59406;45.602;11.904;2022-10-15T08:54:48;24.83;;;15.27;;
59571;SDS011;59406;45.602;11.904;2022-10-15T09:00:19;24.07;;;15.97;;
59571;SDS011;59406;45.602;11.904;2022-10-15T09:06:09;29.50;;;20.10;;
59571;SDS011;59406;45.602;11.904;2022-10-15T09:11:14;24.42;;;16.33;;
59571;SDS011;59406;45.602;11.904;2022-10-15T09:13:45;23.13;;;16.13;;
59571;SDS011;59406;45.602;11.904;2022-10-15T09:16:16;28.83;;;18.50;;
59571;SDS011;59406;45.602;11.904;2022-10-15T09:18:47;30.60;;;20.92;;
59571;SDS011;59406;45.602;11.904;2022-10-15T09:21:16;35.15;;;22.80;;
59571;SDS011;59406;45.602;11.904;2022-10-15T09:23:44;28.92;;;19.67;;
59571;SDS011;59406;45.602;11.904;2022-10-15T09:28:44;31.00;;;22.35;;
59571;SDS011;59406;45.602;11.904;2022-10-15T09:31:40;31.45;;;23.38;;
59571;SDS011;59406;45.602;11.904;2022-10-15T09:34:28;27.60;;;20.08;;
59571;SDS011;59406;45.602;11.904;2022-10-15T09:37:20;29.17;;;22.70;;
59571;SDS011;59406;45.602;11.904;2022-10-15T09:42:28;31.80;;;23.33;;
59571;SDS011;59406;45.602;11.904;2022-10-15T09:45:00;31.83;;;22.75;;
59571;SDS011;59406;45.602;11.904;2022-10-15T09:47:31;37.53;;;25.85;;
59571;SDS011;59406;45.602;11.904;2022-10-15T09:49:59;33.07;;;26.43;;
59571;SDS011;59406;45.602;11.904;2022-10-15T09:57:50;32.53;;;25.15;;
59571;SDS011;59406;45.602;11.904;2022-10-15T10:00:18;32.08;;;24.20;;
59571;SDS011;59406;45.602;11.904;2022-10-15T10:02:45;26.70;;;21.77;;
59571;SDS011;59406;45.602;11.904;2022-10-15T10:05:32;27.70;;;22.38;;
59571;SDS011;59406;45.602;11.904;2022-10-15T10:08:15;31.50;;;26.35;;
59571;SDS011;59406;45.602;11.904;2022-10-15T10:10:52;25.73;;;20.50;;
59571;SDS011;59406;45.602;11.904;2022-10-15T10:16:15;35.13;;;26.73;;
59571;SDS011;59406;45.602;11.904;2022-10-15T10:18:43;30.20;;;25.35;;
59571;SDS011;59406;45.602;11.904;2022-10-15T10:21:22;31.35;;;23.92;;
59571;SDS011;59406;45.602;11.904;2022-10-15T10:26:52;31.13;;;23.52;;
59571;SDS011;59406;45.602;11.904;2022-10-15T10:29:20;25.67;;;20.10;;
59571;SDS011;59406;45.602;11.904;2022-10-15T10:31:47;28.75;;;23.38;;
59571;SDS011;59406;45.602;11.904;2022-10-15T10:34:26;28.55;;;22.80;;
59571;SDS011;59406;45.602;11.904;2022-10-15T10:36:53;29.88;;;23.40;;
59571;SDS011;59406;45.602;11.904;2022-10-15T10:39:27;35.67;;;27.35;;
59571;SDS011;59406;45.602;11.904;2022-10-15T10:42:03;32.27;;;25.07;;
59571;SDS011;59406;45.602;11.904;2022-10-15T10:44:47;32.33;;;23.58;;
59571;SDS011;59406;45.602;11.904;2022-10-15T10:47:14;30.65;;;25.73;;
59571;SDS011;59406;45.602;11.904;2022-10-15T10:49:47;31.30;;;25.10;;
59571;SDS011;59406;45.602;11.904;2022-10-15T11:03:03;34.28;;;25.55;;
59571;SDS011;59406;45.602;11.904;2022-10-15T11:05:31;33.87;;;27.43;;
59571;SDS011;59406;45.602;11.904;2022-10-15T11:08:37;32.40;;;27.15;;
59571;SDS011;59406;45.602;11.904;2022-10-15T11:10:57;26.98;;;22.35;;
59571;SDS011;59406;45.602;11.904;2022-10-15T11:13:36;30.45;;;26.08;;
59571;SDS011;59406;45.602;11.904;2022-10-15T11:24:42;25.50;;;21.30;;
59571;SDS011;59406;45.602;11.904;2022-10-15T11:27:39;34.17;;;25.73;;
59571;SDS011;59406;45.602;11.904;2022-10-15T11:35:53;36.83;;;29.27;;
59571;SDS011;59406;45.602;11.904;2022-10-15T11:38:29;32.70;;;26.58;;
59571;SDS011;59406;45.602;11.904;2022-10-15T11:41:10;37.65;;;29.35;;
59571;SDS011;59406;45.602;11.904;2022-10-15T11:46:22;34.80;;;28.07;;
59571;SDS011;59406;45.602;11.904;2022-10-15T11:51:32;31.98;;;25.20;;
59571;SDS011;59406;45.602;11.904;2022-10-15T11:55:00;32.65;;;24.88;;
59571;SDS011;59406;45.602;11.904;2022-10-15T11:57:07;30.27;;;24.53;;
59571;SDS011;59406;45.602;11.904;2022-10-15T11:59:39;38.47;;;29.50;;
59571;SDS011;59406;45.602;11.904;2022-10-15T12:02:16;33.20;;;26.42;;
59571;SDS011;59406;45.602;11.904;2022-10-15T12:07:19;33.35;;;26.83;;
59571;SDS011;59406;45.602;11.904;2022-10-15T12:09:52;23.33;;;19.93;;
59571;SDS011;59406;45.602;11.904;2022-10-15T12:12:37;37.35;;;28.98;;
59571;SDS011;59406;45.602;11.904;2022-10-15T12:15:14;36.92;;;29.33;;
59571;SDS011;59406;45.602;11.904;2022-10-15T12:20:50;40.50;;;29.98;;
59571;SDS011;59406;45.602;11.904;2022-10-15T12:23:23;28.07;;;22.33;;
59571;SDS011;59406;45.602;11.904;2022-10-15T12:28:54;45.72;;;32.75;;
59571;SDS011;59406;45.602;11.904;2022-10-15T12:31:22;32.13;;;23.45;;
59571;SDS011;59406;45.602;11.904;2022-10-15T12:36:21;47.73;;;32.67;;
59571;SDS011;59406;45.602;11.904;2022-10-15T12:44:18;43.00;;;31.60;;
59571;SDS011;59406;45.602;11.904;2022-10-15T12:46:50;36.05;;;28.65;;
59571;SDS011;59406;45.602;11.904;2022-10-15T12:51:52;30.92;;;24.85;;
59571;SDS011;59406;45.602;11.904;2022-10-15T12:59:56;30.40;;;22.38;;
59571;SDS011;59406;45.602;11.904;2022-10-15T13:02:43;30.07;;;23.50;;
59571;SDS011;59406;45.602;11.904;2022-10-15T13:05:27;33.47;;;26.60;;
59571;SDS011;59406;45.602;11.904;2022-10-15T13:07:56;32.30;;;26.33;;
59571;SDS011;59406;45.602;11.904;2022-10-15T13:10:28;34.08;;;27.27;;
59571;SDS011;59406;45.602;11.904;2022-10-15T13:13:00;32.88;;;25.67;;
59571;SDS011;59406;45.602;11.904;2022-10-15T13:15:30;27.63;;;21.23;;
59571;SDS011;59406;45.602;11.904;2022-10-15T13:17:59;32.88;;;24.67;;
59571;SDS011;59406;45.602;11.904;2022-10-15T13:23:18;39.03;;;30.25;;
59571;SDS011;59406;45.602;11.904;2022-10-15T13:25:49;42.72;;;31.35;;
59571;SDS011;59406;45.602;11.904;2022-10-15T13:28:29;27.57;;;20.67;;
59571;SDS011;59406;45.602;11.904;2022-10-15T13:30:58;27.90;;;23.33;;
59571;SDS011;59406;45.602;11.904;2022-10-15T13:33:26;36.42;;;27.23;;
59571;SDS011;59406;45.602;11.904;2022-10-15T13:35:52;37.42;;;27.70;;
59571;SDS011;59406;45.602;11.904;2022-10-15T13:38:22;34.60;;;24.33;;
59571;SDS011;59406;45.602;11.904;2022-10-15T13:40:51;27.90;;;20.70;;
59571;SDS011;59406;45.602;11.904;2022-10-15T13:43:22;37.60;;;28.23;;
59571;SDS011;59406;45.602;11.904;2022-10-15T13:45:52;36.60;;;26.65;;
59571;SDS011;59406;45.602;11.904;2022-10-15T13:48:21;25.80;;;20.80;;
59571;SDS011;59406;45.602;11.904;2022-10-15T13:50:53;25.35;;;21.00;;
59571;SDS011;59406;45.602;11.904;2022-10-15T13:55:57;34.40;;;26.48;;
59571;SDS011;59406;45.602;11.904;2022-10-15T13:58:28;33.83;;;26.77;;
59571;SDS011;59406;45.602;11.904;2022-10-15T14:00:59;24.75;;;19.90;;
59571;SDS011;59406;45.602;11.904;2022-10-15T14:03:30;42.38;;;30.88;;
59571;SDS011;59406;45.602;11.904;2022-10-15T14:06:07;36.43;;;27.33;;
59571;SDS011;59406;45.602;11.904;2022-10-15T14:08:39;29.50;;;23.40;;
59571;SDS011;59406;45.602;11.904;2022-10-15T14:11:05;32.72;;;24.25;;
59571;SDS011;59406;45.602;11.904;2022-10-15T14:13:31;44.63;;;32.22;;
59571;SDS011;59406;45.602;11.904;2022-10-15T14:16:09;34.20;;;23.50;;
59571;SDS011;59406;45.602;11.904;2022-10-15T14:18:43;34.35;;;25.50;;
59571;SDS011;59406;45.602;11.904;2022-10-15T14:21:12;30.30;;;21.67;;
59571;SDS011;59406;45.602;11.904;2022-10-15T14:23:42;41.10;;;28.73;;
59571;SDS011;59406;45.602;11.904;2022-10-15T14:26:11;34.42;;;26.13;;
59571;SDS011;59406;45.602;11.904;2022-10-15T14:28:39;36.83;;;26.53;;
59571;SDS011;59406;45.602;11.904;2022-10-15T14:31:07;28.10;;;20.10;;
59571;SDS011;59406;45.602;11.904;2022-10-15T14:36:06;31.13;;;21.55;;
59571;SDS011;59406;45.602;11.904;2022-10-15T14:38:47;24.27;;;18.63;;
59571;SDS011;59406;45.602;11.904;2022-10-15T14:44:34;36.67;;;26.83;;
59571;SDS011;59406;45.602;11.904;2022-10-15T14:46:49;35.72;;;24.95;;
59571;SDS011;59406;45.602;11.904;2022-10-15T14:51:55;27.08;;;19.45;;
59571;SDS011;59406;45.602;11.904;2022-10-15T14:54:38;24.73;;;17.23;;
59571;SDS011;59406;45.602;11.904;2022-10-15T14:57:13;23.15;;;16.83;;
59571;SDS011;59406;45.602;11.904;2022-10-15T14:59:52;22.55;;;14.80;;
59571;SDS011;59406;45.602;11.904;2022-10-15T15:02:21;18.60;;;13.45;;
59571;SDS011;59406;45.602;11.904;2022-10-15T15:07:36;24.57;;;17.57;;
59571;SDS011;59406;45.602;11.904;2022-10-15T15:10:04;24.33;;;16.60;;
59571;SDS011;59406;45.602;11.904;2022-10-15T15:12:32;28.80;;;19.23;;
59571;SDS011;59406;45.602;11.904;2022-10-15T15:14:59;25.52;;;17.60;;
59571;SDS011;59406;45.602;11.904;2022-10-15T15:17:26;34.20;;;22.83;;
59571;SDS011;59406;45.602;11.904;2022-10-15T15:19:54;29.30;;;19.80;;
59571;SDS011;59406;45.602;11.904;2022-10-15T15:22:25;26.70;;;17.20;;
59571;SDS011;59406;45.602;11.904;2022-10-15T15:24:57;25.00;;;17.60;;
59571;SDS011;59406;45.602;11.904;2022-10-15T15:27:26;32.30;;;23.17;;
59571;SDS011;59406;45.602;11.904;2022-10-15T15:29:54;29.90;;;19.67;;
59571;SDS011;59406;45.602;11.904;2022-10-15T15:32:21;44.13;;;28.53;;
59571;SDS011;59406;45.602;11.904;2022-10-15T15:34:48;33.17;;;22.15;;
59571;SDS011;59406;45.602;11.904;2022-10-15T15:37:17;30.27;;;19.58;;
59571;SDS011;59406;45.602;11.904;2022-10-15T15:39:45;48.53;;;29.85;;
59571;SDS011;59406;45.602;11.904;2022-10-15T15:42:13;36.67;;;23.90;;
59571;SDS011;59406;45.602;11.904;2022-10-15T15:44:40;43.70;;;26.43;;
59571;SDS011;59406;45.602;11.904;2022-10-15T15:47:07;30.60;;;19.98;;
59571;SDS011;59406;45.602;11.904;2022-10-15T15:49:34;48.10;;;31.90;;
59571;SDS011;59406;45.602;11.904;2022-10-15T15:52:00;42.05;;;26.83;;
59571;SDS011;59406;45.602;11.904;2022-10-15T15:54:27;43.53;;;28.65;;
59571;SDS011;59406;45.602;11.904;2022-10-15T15:56:52;55.13;;;33.87;;
59571;SDS011;59406;45.602;11.904;2022-10-15T15:59:19;47.70;;;29.08;;
59571;SDS011;59406;45.602;11.904;2022-10-15T16:01:45;46.42;;;29.45;;
59571;SDS011;59406;45.602;11.904;2022-10-15T16:04:11;45.67;;;29.52;;
59571;SDS011;59406;45.602;11.904;2022-10-15T16:06:38;45.97;;;30.07;;
59571;SDS011;59406;45.602;11.904;2022-10-15T16:09:04;50.50;;;30.40;;
59571;SDS011;59406;45.602;11.904;2022-10-15T16:11:31;43.83;;;27.00;;
59571;SDS011;59406;45.602;11.904;2022-10-15T16:13:57;34.90;;;22.92;;
59571;SDS011;59406;45.602;11.904;2022-10-15T16:16:24;39.00;;;26.00;;
59571;SDS011;59406;45.602;11.904;2022-10-15T16:18:50;50.38;;;31.38;;
59571;SDS011;59406;45.602;11.904;2022-10-15T16:21:20;54.95;;;33.92;;
59571;SDS011;59406;45.602;11.904;2022-10-15T16:23:47;46.83;;;27.08;;
59571;SDS011;59406;45.602;11.904;2022-10-15T16:26:13;44.07;;;27.17;;
59571;SDS011;59406;45.602;11.904;2022-10-15T16:28:38;37.83;;;24.60;;
59571;SDS011;59406;45.602;11.904;2022-10-15T16:33:44;68.97;;;40.88;;
59571;SDS011;59406;45.602;11.904;2022-10-15T16:36:11;54.92;;;35.65;;